Carbonear, Canada
Current Conditions -  °F | °C
As of 8:00 PM on Tuesday 21 Oct 2014 (Local Time) from CYYT Reporting Station
Broken Clouds Broken Clouds  
Wind Chill: 41°   Ceiling: 3300
Heat Index: 46°   Visibility: 15mi
Dew Point: 39°   Wind: 13mph
Humidity: 76%   Direction: 270°W
Pressure: 30.18"   Gusts: NA
Location:  47.73°N, 53.25°W
Report Text: CYYT 212200Z 27011KT 15SM BKN033 08/04 A3018 RMK SC5 SLP224
Loading
Personal Weather Stations






























Interactive Weather Map
Tropical Storm Tracking
New forecast layout! Learn more

10-Day Weather Forecast

Advertisements
Track Severe Weather on mobile